createdAt,value
2022-09-28T00:01:16.634Z,7.23
2022-09-28T00:03:49.829Z,6.70
2022-09-28T00:06:27.292Z,6.73
2022-09-28T00:08:59.334Z,6.60
2022-09-28T00:11:31.414Z,7.30
2022-09-28T00:14:03.987Z,7.10
2022-09-28T00:16:39.081Z,6.43
2022-09-28T00:19:12.535Z,6.93
2022-09-28T00:21:44.447Z,7.83
2022-09-28T00:24:17.060Z,7.03
2022-09-28T00:26:51.539Z,8.07
2022-09-28T00:29:31.995Z,7.40
2022-09-28T00:32:06.322Z,7.10
2022-09-28T00:34:45.752Z,6.70
2022-09-28T00:37:19.088Z,7.17
2022-09-28T00:39:51.175Z,6.57
2022-09-28T00:42:25.430Z,6.90
2022-09-28T00:44:58.611Z,6.50
2022-09-28T00:47:41.916Z,6.70
2022-09-28T00:50:30.023Z,6.80
2022-09-28T00:53:09.531Z,7.10
2022-09-28T00:56:00.570Z,7.07
2022-09-28T00:58:36.030Z,7.50
2022-09-28T01:01:08.512Z,6.70
2022-09-28T01:03:45.195Z,7.20
2022-09-28T01:06:21.720Z,7.20
2022-09-28T01:08:56.722Z,7.20
2022-09-28T01:11:31.488Z,6.70
2022-09-28T01:14:03.677Z,6.90
2022-09-28T01:17:00.155Z,7.90
2022-09-28T01:19:46.289Z,6.33
2022-09-28T01:22:58.977Z,7.47
2022-09-28T01:25:39.190Z,7.27
2022-09-28T01:28:14.566Z,7.63
2022-09-28T01:30:49.435Z,7.63
2022-09-28T01:33:24.528Z,8.00
2022-09-28T01:36:21.159Z,7.80
2022-09-28T01:38:57.608Z,7.50
2022-09-28T01:41:30.443Z,7.37
2022-09-28T01:44:03.396Z,7.17
2022-09-28T01:46:44.799Z,7.60
2022-09-28T01:49:26.177Z,8.10
2022-09-28T01:52:07.553Z,7.50
2022-09-28T01:54:46.267Z,7.87
2022-09-28T01:57:49.077Z,7.80
2022-09-28T02:00:23.088Z,7.00
2022-09-28T02:03:07.997Z,7.57
2022-09-28T02:05:55.358Z,7.87
2022-09-28T02:08:32.412Z,7.10
2022-09-28T02:11:15.073Z,7.83
2022-09-28T02:14:06.194Z,8.23
2022-09-28T02:16:46.582Z,8.37
2022-09-28T02:19:21.048Z,8.33
2022-09-28T02:22:17.651Z,7.60
2022-09-28T02:24:49.511Z,7.73
2022-09-28T02:27:36.538Z,8.53
2022-09-28T02:30:08.976Z,7.57
2022-09-28T02:32:45.202Z,9.13
2022-09-28T02:35:18.676Z,7.90
2022-09-28T02:37:50.637Z,7.60
2022-09-28T02:40:34.408Z,7.83
2022-09-28T02:43:14.973Z,8.07
2022-09-28T02:46:23.225Z,8.27
2022-09-28T02:49:21.865Z,8.07
2022-09-28T02:52:03.475Z,8.10
2022-09-28T02:55:02.827Z,7.80
2022-09-28T02:57:46.905Z,8.33
2022-09-28T03:00:21.041Z,9.23
2022-09-28T03:03:17.869Z,9.23
2022-09-28T03:06:14.324Z,8.97
2022-09-28T03:09:18.887Z,7.93
2022-09-28T03:11:57.147Z,8.63
2022-09-28T03:14:29.025Z,8.20
2022-09-28T03:17:04.175Z,7.80
2022-09-28T03:19:38.390Z,7.50
2022-09-28T03:22:10.280Z,8.80
2022-09-28T03:24:42.223Z,8.47
2022-09-28T03:27:14.196Z,8.43
2022-09-28T03:29:46.403Z,8.73
2022-09-28T03:32:18.512Z,7.87
2022-09-28T03:34:50.531Z,7.90
2022-09-28T03:37:22.753Z,8.57
2022-09-28T03:39:54.607Z,8.97
2022-09-28T03:42:27.674Z,8.80
2022-09-28T03:44:59.866Z,9.60
2022-09-28T03:47:31.909Z,8.83
2022-09-28T03:50:04.233Z,8.97
2022-09-28T03:52:36.236Z,9.23
2022-09-28T03:55:08.822Z,9.60
2022-09-28T03:57:40.953Z,8.97
2022-09-28T04:00:13.166Z,8.73
2022-09-28T04:02:48.395Z,11.67
2022-09-28T04:05:20.860Z,12.20
2022-09-28T04:07:56.119Z,12.00
2022-09-28T04:10:28.145Z,12.17
2022-09-28T04:13:00.126Z,12.20
2022-09-28T04:15:32.130Z,12.87
2022-09-28T04:18:11.136Z,12.27
2022-09-28T04:21:10.469Z,15.97
2022-09-28T04:23:47.075Z,16.07
2022-09-28T04:26:23.491Z,16.97
2022-09-28T04:29:14.244Z,16.20
2022-09-28T04:31:51.122Z,14.17
2022-09-28T04:34:24.265Z,15.17
2022-09-28T04:36:56.267Z,16.33
2022-09-28T04:39:28.351Z,14.60
2022-09-28T04:42:01.857Z,14.30
2022-09-28T04:44:34.206Z,16.37
2022-09-28T04:47:12.982Z,14.90
2022-09-28T04:50:03.411Z,17.30
2022-09-28T04:52:40.136Z,16.43
2022-09-28T04:55:13.581Z,16.43
2022-09-28T04:57:45.591Z,14.37
2022-09-28T05:00:17.600Z,15.33
2022-09-28T05:03:02.710Z,16.30
2022-09-28T05:05:53.017Z,14.77
2022-09-28T05:08:43.346Z,15.60
2022-09-28T05:11:15.408Z,14.53
2022-09-28T05:13:48.474Z,15.87
2022-09-28T05:16:21.661Z,14.33
2022-09-28T05:19:14.390Z,14.10
2022-09-28T05:21:47.020Z,16.90
2022-09-28T05:24:19.229Z,16.00
2022-09-28T05:26:55.817Z,17.33
2022-09-28T05:29:31.415Z,16.73
2022-09-28T05:32:44.238Z,16.67
2022-09-28T05:35:23.368Z,15.80
2022-09-28T05:37:56.104Z,16.03
2022-09-28T05:40:28.248Z,15.80
2022-09-28T05:43:01.922Z,15.17
2022-09-28T05:45:34.673Z,18.00
2022-09-28T05:48:08.707Z,16.57
2022-09-28T05:50:40.737Z,18.47
2022-09-28T05:53:13.280Z,17.17
2022-09-28T05:55:45.305Z,16.17
2022-09-28T05:58:18.360Z,15.50
2022-09-28T06:00:55.084Z,15.97
2022-09-28T06:03:27.315Z,17.13
2022-09-28T06:06:01.863Z,17.40
2022-09-28T06:08:35.003Z,16.63
2022-09-28T06:11:28.145Z,18.27
2022-09-28T06:14:02.746Z,17.57
2022-09-28T06:16:38.258Z,16.53
2022-09-28T06:19:14.363Z,17.77
2022-09-28T06:22:01.409Z,17.97
2022-09-28T06:24:35.213Z,19.90
2022-09-28T06:27:07.362Z,18.33
2022-09-28T06:29:39.314Z,18.83
2022-09-28T06:32:12.403Z,19.40
2022-09-28T06:34:44.483Z,18.30
2022-09-28T06:37:16.787Z,18.47
2022-09-28T06:39:48.800Z,19.70
2022-09-28T06:42:20.833Z,19.60
2022-09-28T06:45:25.269Z,19.00
2022-09-28T06:48:15.029Z,16.67
2022-09-28T06:50:47.561Z,17.87
2022-09-28T06:53:37.999Z,20.93
2022-09-28T06:56:32.752Z,20.90
2022-09-28T06:59:05.318Z,19.93
2022-09-28T07:01:37.332Z,21.70
2022-09-28T07:04:31.136Z,20.17
2022-09-28T07:07:21.971Z,21.83
2022-09-28T07:10:13.509Z,21.70
2022-09-28T07:13:10.403Z,23.77
2022-09-28T07:15:57.457Z,21.93
2022-09-28T07:18:30.012Z,21.90
2022-09-28T07:21:04.089Z,22.33
2022-09-28T07:23:50.155Z,22.87
2022-09-28T07:26:30.976Z,24.03
2022-09-28T07:29:16.853Z,24.40
2022-09-28T07:32:01.153Z,25.27
2022-09-28T07:34:58.164Z,23.87
2022-09-28T07:37:47.515Z,22.53
2022-09-28T07:40:38.157Z,20.57
2022-09-28T07:43:10.440Z,22.47
2022-09-28T07:45:45.336Z,22.00
2022-09-28T07:48:17.560Z,21.57
2022-09-28T07:51:08.667Z,22.40
2022-09-28T07:53:54.115Z,21.67
2022-09-28T07:56:46.009Z,19.83
2022-09-28T07:59:25.156Z,21.47
2022-09-28T08:02:17.926Z,21.07
2022-09-28T08:04:50.283Z,21.50
2022-09-28T08:07:25.608Z,22.17
2022-09-28T08:10:07.562Z,20.70
2022-09-28T08:13:04.781Z,22.53
2022-09-28T08:15:48.457Z,19.73
2022-09-28T08:18:37.097Z,19.13
2022-09-28T08:21:29.198Z,21.07
2022-09-28T08:24:01.323Z,21.60
2022-09-28T08:26:33.655Z,19.80
2022-09-28T08:29:06.332Z,20.30
2022-09-28T08:32:06.270Z,21.30
2022-09-28T08:34:41.615Z,20.67
2022-09-28T08:37:29.469Z,19.60
2022-09-28T08:40:51.771Z,18.30
2022-09-28T08:44:00.238Z,19.10
2022-09-28T08:47:34.123Z,18.57
2022-09-28T08:50:59.092Z,19.10
2022-09-28T08:54:15.736Z,18.50
2022-09-28T08:57:03.215Z,18.73
2022-09-28T08:59:47.915Z,16.40
2022-09-28T09:02:29.141Z,16.13
2022-09-28T09:05:20.010Z,17.10
2022-09-28T09:08:22.242Z,16.63
2022-09-28T09:11:13.701Z,15.80
2022-09-28T09:14:12.988Z,15.67
2022-09-28T09:17:06.918Z,15.60
2022-09-28T09:20:42.549Z,13.00
2022-09-28T09:23:44.384Z,16.83
2022-09-28T09:26:22.788Z,17.20
2022-09-28T09:29:18.400Z,16.47
2022-09-28T09:32:13.656Z,17.83
2022-09-28T09:35:10.121Z,18.93
2022-09-28T09:38:16.072Z,15.50
2022-09-28T09:41:40.779Z,18.93
2022-09-28T09:45:05.985Z,19.90
2022-09-28T09:48:15.592Z,18.03
2022-09-28T09:50:51.408Z,19.90
2022-09-28T09:53:24.631Z,18.77
2022-09-28T09:56:02.821Z,18.40
2022-09-28T09:58:47.974Z,17.20
2022-09-28T10:01:35.903Z,16.77
2022-09-28T10:04:34.033Z,18.77
2022-09-28T10:07:19.088Z,19.00
2022-09-28T10:09:54.167Z,19.17
2022-09-28T10:12:49.429Z,17.73
2022-09-28T10:15:30.387Z,17.67
2022-09-28T10:18:28.602Z,19.40
2022-09-28T10:21:21.909Z,21.07
2022-09-28T10:24:02.784Z,19.37
2022-09-28T10:26:38.941Z,22.50
2022-09-28T10:29:17.862Z,17.63
2022-09-28T10:31:51.885Z,18.70
2022-09-28T10:34:33.463Z,20.23
2022-09-28T10:37:11.991Z,18.57
2022-09-28T10:40:28.379Z,17.40
2022-09-28T10:43:02.466Z,19.47
2022-09-28T10:45:37.197Z,17.30
2022-09-28T10:48:22.765Z,17.60
2022-09-28T10:51:00.671Z,17.67
2022-09-28T10:53:34.419Z,19.20
2022-09-28T10:56:28.025Z,18.60
2022-09-28T10:59:29.473Z,18.50
2022-09-28T11:02:23.219Z,20.10
2022-09-28T11:04:59.003Z,15.97
2022-09-28T11:07:43.976Z,12.17
2022-09-28T11:10:20.977Z,11.97
2022-09-28T11:12:54.035Z,14.07
2022-09-28T11:15:33.849Z,14.07
2022-09-28T11:18:31.580Z,12.70
2022-09-28T11:21:32.274Z,11.87
2022-09-28T11:24:20.146Z,8.60
2022-09-28T11:27:00.272Z,9.60
2022-09-28T11:29:46.982Z,10.53
2022-09-28T11:32:43.381Z,9.70
2022-09-28T11:35:51.447Z,9.37
2022-09-28T11:39:01.318Z,10.90
2022-09-28T11:42:16.114Z,9.17
2022-09-28T11:45:09.511Z,6.73
2022-09-28T11:48:30.732Z,7.87
2022-09-28T11:51:21.640Z,7.73
2022-09-28T11:54:44.801Z,7.03
2022-09-28T11:57:34.464Z,7.43
2022-09-28T12:00:35.299Z,6.40
2022-09-28T12:04:04.739Z,5.77
2022-09-28T12:07:02.352Z,6.07
2022-09-28T12:09:54.154Z,7.20
2022-09-28T12:12:56.634Z,5.90
2022-09-28T12:18:56.832Z,4.20
2022-09-28T12:21:51.502Z,4.90
2022-09-28T12:24:54.103Z,3.97
2022-09-28T12:27:51.973Z,5.70
2022-09-28T12:30:40.880Z,5.40
2022-09-28T12:33:26.180Z,5.23
2022-09-28T12:36:08.103Z,4.00
2022-09-28T12:39:30.788Z,4.07
2022-09-28T12:43:06.972Z,5.27
2022-09-28T12:46:19.097Z,4.70
2022-09-28T12:50:13.846Z,5.13
2022-09-28T12:52:45.564Z,4.77
2022-09-28T12:59:37.308Z,4.00
2022-09-28T13:02:37.044Z,4.60
2022-09-28T13:05:34.307Z,3.63
2022-09-28T13:09:04.492Z,3.70
2022-09-28T13:12:08.334Z,4.60
2022-09-28T13:15:10.005Z,3.90
2022-09-28T13:18:17.624Z,4.53
2022-09-28T13:21:14.801Z,4.40
2022-09-28T13:24:31.779Z,3.73
2022-09-28T13:30:32.471Z,4.80
2022-09-28T13:33:37.835Z,3.47
2022-09-28T13:36:38.818Z,3.50
2022-09-28T13:39:43.752Z,4.27
2022-09-28T13:42:55.330Z,4.20
2022-09-28T13:45:48.790Z,2.60
2022-09-28T13:49:06.172Z,3.30
2022-09-28T13:52:07.962Z,3.00
2022-09-28T13:55:54.901Z,2.97
2022-09-28T13:58:50.379Z,2.17
2022-09-28T14:02:10.871Z,2.20
2022-09-28T14:05:51.708Z,2.40
2022-09-28T14:08:38.810Z,2.10
2022-09-28T14:11:36.935Z,2.30
2022-09-28T14:14:17.154Z,3.10
2022-09-28T14:16:50.256Z,2.90
2022-09-28T14:19:31.066Z,2.57
2022-09-28T14:22:14.685Z,2.70
2022-09-28T14:25:07.609Z,3.00
2022-09-28T14:28:04.942Z,3.30
2022-09-28T14:30:43.012Z,2.83
2022-09-28T14:33:20.961Z,2.70
2022-09-28T14:36:02.253Z,3.60
2022-09-28T14:39:04.578Z,3.50
2022-09-28T14:41:38.446Z,3.57
2022-09-28T14:44:16.450Z,3.43
2022-09-28T14:46:48.734Z,3.67
2022-09-28T14:49:20.625Z,3.10
2022-09-28T14:51:58.343Z,2.97
2022-09-28T14:54:48.431Z,2.97
2022-09-28T14:57:23.058Z,3.57
2022-09-28T14:59:55.565Z,4.30
2022-09-28T15:02:37.236Z,4.30
2022-09-28T15:05:16.265Z,2.87
2022-09-28T15:07:52.750Z,2.67
2022-09-28T15:10:32.431Z,3.20
2022-09-28T15:13:15.916Z,2.60
2022-09-28T15:15:50.770Z,2.70
2022-09-28T15:18:48.295Z,2.80
2022-09-28T15:21:20.708Z,3.40
2022-09-28T15:23:52.706Z,3.57
2022-09-28T15:26:32.318Z,3.27
2022-09-28T15:29:17.009Z,2.97
2022-09-28T15:31:54.157Z,2.97
2022-09-28T15:34:52.845Z,3.13
2022-09-28T15:37:30.034Z,2.80
2022-09-28T15:40:02.361Z,3.20
2022-09-28T15:42:37.605Z,3.00
2022-09-28T15:45:30.774Z,3.60
2022-09-28T15:48:20.610Z,3.63
2022-09-28T15:51:11.590Z,3.97
2022-09-28T15:53:47.339Z,4.20
2022-09-28T15:56:19.279Z,4.90
2022-09-28T15:59:10.744Z,4.27
2022-09-28T16:01:43.915Z,3.10
2022-09-28T16:04:50.572Z,3.83
2022-09-28T16:07:34.103Z,3.90
2022-09-28T16:10:11.750Z,4.87
2022-09-28T16:12:48.660Z,4.77
2022-09-28T16:15:27.303Z,5.83
2022-09-28T16:18:04.414Z,5.90
2022-09-28T16:20:39.097Z,5.13
2022-09-28T16:23:33.222Z,6.13
2022-09-28T16:26:16.182Z,5.13
2022-09-28T16:28:51.777Z,5.60
2022-09-28T16:31:29.667Z,5.70
2022-09-28T16:34:20.004Z,6.20
2022-09-28T16:36:51.964Z,7.03
2022-09-28T16:39:24.984Z,7.33
2022-09-28T16:42:01.822Z,6.60
2022-09-28T16:44:36.420Z,5.83
2022-09-28T16:47:08.264Z,6.60
2022-09-28T16:49:40.205Z,7.07
2022-09-28T16:52:12.384Z,7.43
2022-09-28T16:55:17.667Z,7.50
2022-09-28T16:57:55.507Z,8.40
2022-09-28T17:00:27.535Z,7.60
2022-09-28T17:02:59.777Z,8.20
2022-09-28T17:05:31.851Z,9.37
2022-09-28T17:08:04.312Z,8.23
2022-09-28T17:13:45.951Z,9.73
2022-09-28T17:16:32.692Z,10.80
2022-09-28T17:19:18.140Z,11.60
2022-09-28T17:21:52.227Z,11.97
2022-09-28T17:24:24.098Z,12.20
2022-09-28T17:26:56.132Z,13.50
2022-09-28T17:29:28.122Z,14.17
2022-09-28T17:32:00.002Z,14.67
2022-09-28T17:34:32.154Z,14.10
2022-09-28T17:37:04.242Z,13.60
2022-09-28T17:39:36.277Z,13.30
2022-09-28T17:42:08.247Z,14.63
2022-09-28T17:44:40.124Z,14.97
2022-09-28T17:47:12.061Z,14.37
2022-09-28T17:49:45.971Z,15.90
2022-09-28T17:52:18.266Z,15.70
2022-09-28T17:54:50.164Z,15.33
2022-09-28T17:57:22.329Z,15.00
2022-09-28T17:59:54.262Z,15.57
2022-09-28T18:02:26.235Z,16.50
2022-09-28T18:04:58.690Z,14.93
2022-09-28T18:07:31.811Z,14.90
2022-09-28T18:10:05.866Z,14.83
2022-09-28T18:12:37.809Z,15.10
2022-09-28T18:15:10.831Z,14.40
2022-09-28T18:17:42.908Z,15.07
2022-09-28T18:20:14.838Z,16.00
2022-09-28T18:22:46.831Z,15.60
2022-09-28T18:25:18.805Z,15.73
2022-09-28T18:27:53.060Z,17.33
2022-09-28T18:30:25.053Z,16.93
2022-09-28T18:32:57.132Z,17.80
2022-09-28T18:35:29.145Z,16.27
2022-09-28T18:38:01.081Z,15.63
2022-09-28T18:40:34.368Z,16.43
2022-09-28T18:43:06.330Z,18.67
2022-09-28T18:45:38.389Z,15.73
2022-09-28T18:48:10.309Z,15.60
2022-09-28T18:50:43.058Z,15.03
2022-09-28T18:53:15.284Z,15.40
2022-09-28T18:55:47.171Z,17.17
2022-09-28T18:58:19.021Z,15.07
2022-09-28T19:00:50.885Z,15.50
2022-09-28T19:03:23.131Z,14.30
2022-09-28T19:05:55.676Z,15.20
2022-09-28T19:08:27.912Z,13.57
2022-09-28T19:11:07.437Z,14.27
2022-09-28T19:13:40.017Z,16.53
2022-09-28T19:16:15.872Z,14.20
2022-09-28T19:18:48.472Z,16.80
2022-09-28T19:21:20.683Z,15.13
2022-09-28T19:23:55.063Z,14.70
2022-09-28T19:26:27.909Z,14.83
2022-09-28T19:29:00.313Z,15.20
2022-09-28T19:31:32.635Z,14.87
2022-09-28T19:34:05.129Z,14.87
2022-09-28T19:36:37.040Z,15.90
2022-09-28T19:39:13.376Z,16.77
2022-09-28T19:41:51.506Z,16.13
2022-09-28T19:44:25.650Z,15.33
2022-09-28T19:47:13.074Z,15.47
2022-09-28T19:49:44.974Z,15.33
2022-09-28T19:52:17.437Z,15.10
2022-09-28T19:54:57.334Z,16.50
2022-09-28T19:57:32.448Z,16.17
2022-09-28T20:00:04.891Z,15.57
2022-09-28T20:02:37.136Z,16.60
2022-09-28T20:05:09.245Z,17.27
2022-09-28T20:07:41.481Z,15.43
2022-09-28T20:10:13.373Z,16.50
2022-09-28T20:12:45.250Z,18.13
2022-09-28T20:15:17.527Z,18.30
2022-09-28T20:17:49.398Z,19.40
2022-09-28T20:20:21.382Z,18.33
2022-09-28T20:22:54.334Z,18.23
2022-09-28T20:25:26.380Z,19.00
2022-09-28T20:27:58.748Z,16.17
2022-09-28T20:30:30.891Z,17.33
2022-09-28T20:33:02.904Z,17.07
2022-09-28T20:35:34.828Z,17.23
2022-09-28T20:38:09.706Z,17.90
2022-09-28T20:40:42.110Z,17.17
2022-09-28T20:43:15.163Z,17.50
2022-09-28T20:45:47.018Z,17.87
2022-09-28T20:48:19.632Z,17.10
2022-09-28T20:51:10.438Z,16.87
2022-09-28T20:53:43.297Z,18.17
2022-09-28T20:56:19.741Z,17.90
2022-09-28T20:58:52.325Z,15.87
2022-09-28T21:01:26.758Z,16.93
2022-09-28T21:04:00.433Z,17.00
2022-09-28T21:06:34.759Z,15.87
2022-09-28T21:09:07.765Z,16.30
2022-09-28T21:11:40.261Z,14.50
2022-09-28T21:14:12.233Z,14.80
2022-09-28T21:16:44.083Z,15.17
2022-09-28T21:19:15.965Z,14.00
2022-09-28T21:21:48.009Z,16.20
2022-09-28T21:24:20.108Z,15.40
2022-09-28T21:26:52.166Z,13.60
2022-09-28T21:29:24.116Z,13.97
2022-09-28T21:31:56.024Z,13.90
2022-09-28T21:34:27.841Z,14.93
2022-09-28T21:36:59.701Z,14.13
2022-09-28T21:39:31.640Z,14.73
2022-09-28T21:42:03.493Z,14.20
2022-09-28T21:44:35.357Z,13.70
2022-09-28T21:47:07.236Z,14.03
2022-09-28T21:49:39.076Z,14.33
2022-09-28T21:52:10.893Z,13.40
2022-09-28T21:54:42.728Z,12.47
2022-09-28T21:57:14.531Z,11.73
2022-09-28T21:59:47.354Z,12.77
2022-09-28T22:02:19.207Z,11.93
2022-09-28T22:04:51.735Z,13.93
2022-09-28T22:07:24.065Z,13.17
2022-09-28T22:09:56.060Z,13.00
2022-09-28T22:12:29.800Z,13.67
2022-09-28T22:15:01.859Z,13.00
2022-09-28T22:17:33.950Z,13.20
2022-09-28T22:20:06.633Z,11.80
2022-09-28T22:22:38.613Z,12.20
2022-09-28T22:25:10.463Z,56.13
2022-09-28T22:27:42.563Z,12.97
2022-09-28T22:30:14.537Z,13.70
2022-09-28T22:32:46.492Z,13.03
2022-09-28T22:35:18.373Z,13.17
2022-09-28T22:37:50.210Z,12.30
2022-09-28T22:40:22.735Z,13.20
2022-09-28T22:42:54.641Z,13.37
2022-09-28T22:45:26.925Z,13.83
2022-09-28T22:47:59.987Z,12.90
2022-09-28T22:50:32.014Z,11.13
2022-09-28T22:53:03.925Z,12.13
2022-09-28T22:55:35.861Z,12.03
2022-09-28T22:58:07.727Z,11.73
2022-09-28T23:00:39.848Z,12.73
2022-09-28T23:03:11.784Z,12.37
2022-09-28T23:05:56.427Z,13.33
2022-09-28T23:08:28.403Z,12.67
2022-09-28T23:11:00.892Z,14.17
2022-09-28T23:13:32.971Z,14.30
2022-09-28T23:16:07.338Z,11.70
2022-09-28T23:18:42.419Z,13.83
2022-09-28T23:21:16.058Z,14.07
2022-09-28T23:23:53.330Z,13.73
2022-09-28T23:26:28.036Z,13.43
2022-09-28T23:29:00.506Z,12.13
2022-09-28T23:31:33.299Z,12.47
2022-09-28T23:34:06.417Z,12.33
2022-09-28T23:36:38.283Z,13.17
2022-09-28T23:39:11.657Z,13.03
2022-09-28T23:41:43.513Z,13.10
2022-09-28T23:44:15.345Z,13.57
2022-09-28T23:46:47.213Z,13.60
2022-09-28T23:49:19.359Z,13.00
2022-09-28T23:51:51.327Z,13.20
2022-09-28T23:54:23.253Z,13.73
2022-09-28T23:56:55.146Z,13.10
2022-09-28T23:59:27.043Z,12.57
